createdAt,value
2022-10-16T00:01:19.259Z,10.57
2022-10-16T00:03:48.594Z,10.27
2022-10-16T00:06:17.591Z,11.35
2022-10-16T00:08:45.408Z,9.32
2022-10-16T00:11:18.698Z,7.03
2022-10-16T00:13:47.824Z,6.25
2022-10-16T00:16:15.287Z,6.38
2022-10-16T00:18:43.357Z,6.57
2022-10-16T00:21:16.833Z,5.07
2022-10-16T00:23:44.730Z,4.82
2022-10-16T00:26:16.497Z,4.13
2022-10-16T00:28:46.363Z,3.63
2022-10-16T00:31:14.791Z,4.07
2022-10-16T00:33:42.839Z,4.00
2022-10-16T00:36:14.105Z,3.85
2022-10-16T00:38:41.729Z,3.90
2022-10-16T00:41:13.612Z,3.35
2022-10-16T00:43:56.238Z,4.00
2022-10-16T00:46:29.142Z,3.88
2022-10-16T00:49:02.805Z,3.70
2022-10-16T00:51:53.769Z,4.43
2022-10-16T00:54:24.927Z,3.40
2022-10-16T00:56:52.669Z,3.10
2022-10-16T00:59:26.442Z,3.50
2022-10-16T01:01:55.260Z,2.97
2022-10-16T01:04:23.818Z,3.00
2022-10-16T01:07:15.403Z,2.90
2022-10-16T01:10:19.165Z,2.88
2022-10-16T01:13:34.244Z,3.55
2022-10-16T01:16:59.280Z,3.15
2022-10-16T01:19:52.481Z,3.10
2022-10-16T01:22:24.994Z,3.38
2022-10-16T01:24:56.215Z,3.10
2022-10-16T01:27:36.382Z,3.28
2022-10-16T01:30:24.665Z,3.42
2022-10-16T01:32:58.709Z,4.10
2022-10-16T01:35:33.567Z,3.65
2022-10-16T01:38:28.107Z,3.60
2022-10-16T01:41:00.937Z,3.75
2022-10-16T01:43:54.570Z,4.10
2022-10-16T01:46:24.151Z,4.20
2022-10-16T01:48:53.632Z,4.18
2022-10-16T01:51:22.060Z,3.92
2022-10-16T01:53:54.636Z,4.10
2022-10-16T01:56:24.432Z,4.38
2022-10-16T01:58:56.982Z,4.20
2022-10-16T02:01:28.099Z,4.20
2022-10-16T02:03:59.737Z,4.55
2022-10-16T02:06:27.429Z,4.25
2022-10-16T02:08:55.341Z,4.15
2022-10-16T02:11:24.515Z,4.28
2022-10-16T02:14:05.411Z,3.90
2022-10-16T02:16:45.273Z,3.72
2022-10-16T02:19:14.370Z,4.20
2022-10-16T02:21:48.331Z,3.30
2022-10-16T02:24:38.434Z,3.00
2022-10-16T02:27:14.743Z,3.10
2022-10-16T02:29:49.645Z,2.83
2022-10-16T02:32:20.906Z,4.13
2022-10-16T02:34:50.607Z,3.65
2022-10-16T02:37:19.399Z,3.50
2022-10-16T02:39:46.854Z,3.00
2022-10-16T02:42:15.608Z,2.92
2022-10-16T02:44:42.952Z,3.03
2022-10-16T02:47:10.332Z,2.80
2022-10-16T02:49:37.652Z,2.83
2022-10-16T02:52:05.111Z,2.75
2022-10-16T02:54:32.446Z,2.83
2022-10-16T02:56:59.792Z,3.08
2022-10-16T02:59:27.061Z,3.15
2022-10-16T03:01:54.384Z,2.95
2022-10-16T03:04:21.778Z,3.22
2022-10-16T03:06:49.027Z,2.97
2022-10-16T03:09:16.458Z,2.90
2022-10-16T03:11:43.802Z,3.35
2022-10-16T03:14:11.172Z,3.55
2022-10-16T03:16:38.882Z,3.47
2022-10-16T03:19:06.271Z,3.60
2022-10-16T03:21:33.591Z,3.67
2022-10-16T03:24:00.970Z,3.60
2022-10-16T03:26:28.280Z,3.70
2022-10-16T03:28:55.710Z,3.67
2022-10-16T03:31:23.559Z,3.47
2022-10-16T03:33:50.913Z,3.60
2022-10-16T03:36:18.487Z,2.88
2022-10-16T03:38:45.822Z,3.08
2022-10-16T03:41:13.151Z,3.20
2022-10-16T03:43:40.574Z,2.83
2022-10-16T03:46:07.923Z,2.83
2022-10-16T03:48:35.167Z,2.88
2022-10-16T03:51:02.585Z,3.00
2022-10-16T03:53:30.047Z,2.72
2022-10-16T03:55:57.293Z,3.03
2022-10-16T03:58:24.646Z,2.60
2022-10-16T04:00:52.122Z,2.75
2022-10-16T04:03:20.320Z,2.65
2022-10-16T04:05:47.626Z,2.50
2022-10-16T04:08:15.005Z,2.67
2022-10-16T04:10:44.990Z,2.72
2022-10-16T04:13:13.493Z,2.60
2022-10-16T04:15:40.936Z,2.75
2022-10-16T04:18:08.588Z,2.92
2022-10-16T04:20:35.966Z,2.83
2022-10-16T04:23:03.752Z,2.65
2022-10-16T04:25:31.896Z,2.65
2022-10-16T04:27:59.375Z,2.67
2022-10-16T04:30:27.035Z,2.70
2022-10-16T04:32:54.941Z,2.70
2022-10-16T04:35:23.005Z,3.50
2022-10-16T04:37:51.874Z,3.10
2022-10-16T04:40:19.192Z,3.03
2022-10-16T04:42:46.633Z,2.97
2022-10-16T04:45:16.421Z,2.75
2022-10-16T04:47:44.920Z,2.75
2022-10-16T04:50:12.417Z,3.15
2022-10-16T04:52:39.985Z,2.92
2022-10-16T04:55:08.265Z,2.67
2022-10-16T04:57:35.627Z,2.83
2022-10-16T05:00:04.491Z,2.65
2022-10-16T05:02:33.175Z,2.90
2022-10-16T05:05:00.765Z,2.50
2022-10-16T05:07:28.430Z,2.88
2022-10-16T05:09:55.922Z,2.63
2022-10-16T05:12:24.969Z,3.00
2022-10-16T05:14:52.374Z,2.92
2022-10-16T05:17:19.677Z,2.58
2022-10-16T05:19:47.133Z,2.70
2022-10-16T05:22:14.486Z,3.15
2022-10-16T05:24:41.809Z,3.55
2022-10-16T05:27:09.144Z,2.95
2022-10-16T05:29:36.453Z,3.10
2022-10-16T05:32:04.139Z,3.13
2022-10-16T05:34:31.552Z,3.38
2022-10-16T05:36:58.867Z,3.85
2022-10-16T05:39:26.157Z,2.85
2022-10-16T05:41:54.688Z,2.67
2022-10-16T05:44:23.088Z,2.65
2022-10-16T05:46:50.408Z,2.70
2022-10-16T05:49:17.764Z,2.70
2022-10-16T05:51:45.197Z,2.55
2022-10-16T05:54:12.832Z,2.75
2022-10-16T05:56:40.346Z,2.95
2022-10-16T05:59:07.817Z,2.25
2022-10-16T06:01:36.547Z,2.47
2022-10-16T06:04:04.256Z,3.00
2022-10-16T06:06:32.193Z,2.90
2022-10-16T06:09:00.999Z,5.10
2022-10-16T06:11:31.270Z,4.78
2022-10-16T06:14:02.987Z,4.15
2022-10-16T06:16:30.780Z,5.60
2022-10-16T06:18:58.494Z,6.72
2022-10-16T06:21:26.946Z,6.85
2022-10-16T06:23:55.862Z,6.65
2022-10-16T06:26:25.564Z,6.97
2022-10-16T06:28:52.949Z,6.93
2022-10-16T06:31:20.446Z,7.68
2022-10-16T06:33:52.468Z,7.28
2022-10-16T06:36:20.308Z,7.53
2022-10-16T06:38:49.556Z,8.30
2022-10-16T06:41:19.737Z,9.15
2022-10-16T06:43:48.122Z,9.55
2022-10-16T06:46:19.473Z,8.38
2022-10-16T06:48:47.054Z,7.72
2022-10-16T06:51:19.211Z,7.38
2022-10-16T06:54:06.409Z,7.20
2022-10-16T06:56:37.163Z,8.15
2022-10-16T06:59:04.710Z,9.40
2022-10-16T07:01:32.643Z,8.40
2022-10-16T07:04:00.159Z,7.93
2022-10-16T07:06:28.580Z,7.80
2022-10-16T07:08:55.959Z,7.93
2022-10-16T07:11:25.050Z,8.60
2022-10-16T07:13:56.057Z,8.18
2022-10-16T07:16:29.432Z,17.85
2022-10-16T07:19:01.304Z,10.75
2022-10-16T07:21:32.011Z,10.82
2022-10-16T07:24:02.515Z,9.32
2022-10-16T07:26:32.554Z,8.02
2022-10-16T07:29:00.298Z,9.27
2022-10-16T07:31:28.665Z,9.07
2022-10-16T07:33:56.502Z,8.77
2022-10-16T07:36:23.939Z,9.40
2022-10-16T07:38:57.172Z,8.27
2022-10-16T07:41:27.423Z,8.18
2022-10-16T07:43:55.873Z,8.90
2022-10-16T07:46:24.582Z,7.53
2022-10-16T07:48:52.116Z,7.57
2022-10-16T07:51:22.533Z,7.78
2022-10-16T07:53:50.866Z,7.50
2022-10-16T07:56:19.759Z,7.60
2022-10-16T07:58:47.232Z,8.80
2022-10-16T08:01:16.541Z,7.28
2022-10-16T08:03:45.715Z,7.78
2022-10-16T08:06:13.299Z,7.25
2022-10-16T08:08:40.869Z,6.90
2022-10-16T08:11:09.343Z,7.60
2022-10-16T08:13:36.937Z,6.28
2022-10-16T08:16:09.041Z,6.43
2022-10-16T08:18:37.885Z,6.93
2022-10-16T08:21:06.414Z,7.20
2022-10-16T08:23:34.880Z,6.30
2022-10-16T08:26:08.205Z,6.72
2022-10-16T08:28:36.718Z,6.40
2022-10-16T08:31:23.309Z,6.25
2022-10-16T08:33:50.927Z,5.88
2022-10-16T08:36:18.446Z,6.43
2022-10-16T08:38:48.610Z,6.07
2022-10-16T08:42:04.698Z,5.97
2022-10-16T08:44:47.213Z,5.15
2022-10-16T08:47:35.491Z,5.93
2022-10-16T08:50:11.629Z,5.97
2022-10-16T08:52:43.349Z,5.78
2022-10-16T08:55:42.887Z,4.63
2022-10-16T08:58:22.958Z,3.70
2022-10-16T09:01:14.645Z,5.13
2022-10-16T09:04:23.887Z,4.18
2022-10-16T09:07:18.447Z,4.50
2022-10-16T09:10:31.618Z,3.13
2022-10-16T09:13:36.088Z,2.90
2022-10-16T09:16:25.754Z,2.70
2022-10-16T09:19:06.313Z,2.65
2022-10-16T09:21:39.457Z,3.72
2022-10-16T09:24:12.595Z,3.30
2022-10-16T09:26:40.013Z,3.10
2022-10-16T09:29:07.574Z,2.92
2022-10-16T09:31:38.193Z,2.60
2022-10-16T09:34:08.160Z,3.30
2022-10-16T09:36:44.359Z,3.47
2022-10-16T09:39:13.315Z,4.45
2022-10-16T09:41:46.593Z,3.15
2022-10-16T09:44:30.876Z,3.40
2022-10-16T09:47:24.816Z,3.33
2022-10-16T09:49:54.434Z,3.20
2022-10-16T09:52:22.360Z,3.17
2022-10-16T09:55:00.237Z,2.72
2022-10-16T09:57:31.396Z,2.97
2022-10-16T10:00:00.171Z,2.80
2022-10-16T10:02:44.714Z,2.80
2022-10-16T10:05:24.534Z,4.13
2022-10-16T10:08:01.294Z,3.13
2022-10-16T10:10:31.623Z,3.08
2022-10-16T10:12:59.739Z,2.58
2022-10-16T10:15:30.525Z,2.88
2022-10-16T10:17:59.424Z,3.00
2022-10-16T10:20:33.950Z,3.20
2022-10-16T10:23:03.039Z,2.67
2022-10-16T10:25:55.727Z,3.03
2022-10-16T10:28:39.864Z,3.28
2022-10-16T10:31:34.432Z,2.40
2022-10-16T10:34:43.578Z,2.88
2022-10-16T10:37:44.617Z,2.75
2022-10-16T10:40:32.165Z,3.10
2022-10-16T10:43:32.221Z,2.90
2022-10-16T10:46:08.017Z,2.70
2022-10-16T10:49:09.781Z,3.00
2022-10-16T10:51:43.828Z,2.90
2022-10-16T10:54:22.420Z,3.00
2022-10-16T10:56:53.483Z,3.00
2022-10-16T10:59:26.522Z,3.22
2022-10-16T11:01:57.681Z,3.28
2022-10-16T11:04:41.842Z,2.97
2022-10-16T11:07:19.877Z,3.42
2022-10-16T11:09:54.723Z,3.13
2022-10-16T11:12:48.610Z,3.72
2022-10-16T11:15:26.674Z,3.78
2022-10-16T11:18:01.652Z,4.43
2022-10-16T11:20:36.151Z,2.95
2022-10-16T11:23:23.901Z,2.95
2022-10-16T11:25:52.897Z,3.05
2022-10-16T11:28:44.311Z,6.28
2022-10-16T11:31:22.384Z,2.70
2022-10-16T11:34:07.264Z,2.97
2022-10-16T11:36:45.936Z,2.90
2022-10-16T11:39:26.496Z,2.90
2022-10-16T11:42:04.743Z,2.78
2022-10-16T11:45:02.194Z,2.90
2022-10-16T11:48:06.072Z,3.17
2022-10-16T11:50:44.828Z,2.85
2022-10-16T11:53:23.320Z,2.90
2022-10-16T11:55:50.906Z,3.25
2022-10-16T11:58:24.947Z,3.42
2022-10-16T12:01:10.829Z,2.90
2022-10-16T12:03:48.063Z,2.67
2022-10-16T12:06:28.932Z,2.85
2022-10-16T12:08:57.889Z,2.50
2022-10-16T12:11:35.235Z,3.35
2022-10-16T12:14:09.327Z,3.28
2022-10-16T12:16:39.842Z,3.10
2022-10-16T12:19:17.379Z,2.63
2022-10-16T12:21:46.221Z,2.80
2022-10-16T12:24:32.401Z,3.15
2022-10-16T12:27:00.124Z,2.97
2022-10-16T12:29:39.961Z,3.30
2022-10-16T12:32:46.771Z,2.80
2022-10-16T12:35:28.078Z,2.38
2022-10-16T12:38:06.019Z,2.90
2022-10-16T12:40:37.804Z,2.63
2022-10-16T12:43:45.704Z,2.70
2022-10-16T12:46:12.922Z,2.47
2022-10-16T12:48:55.321Z,2.85
2022-10-16T12:51:29.489Z,2.45
2022-10-16T12:54:04.551Z,3.03
2022-10-16T12:56:56.090Z,2.90
2022-10-16T13:00:00.532Z,3.05
2022-10-16T13:02:50.846Z,2.65
2022-10-16T13:05:45.840Z,2.70
2022-10-16T13:08:40.935Z,3.28
2022-10-16T13:11:29.186Z,3.72
2022-10-16T13:14:23.345Z,3.50
2022-10-16T13:17:14.999Z,2.80
2022-10-16T13:19:56.761Z,3.05
2022-10-16T13:23:05.393Z,2.90
2022-10-16T13:25:48.811Z,3.65
2022-10-16T13:28:20.699Z,3.30
2022-10-16T13:30:56.211Z,3.10
2022-10-16T13:33:35.228Z,3.10
2022-10-16T13:36:03.711Z,3.00
2022-10-16T13:38:37.143Z,3.30
2022-10-16T13:41:16.387Z,3.20
2022-10-16T13:43:50.875Z,3.25
2022-10-16T13:46:20.642Z,3.57
2022-10-16T13:49:23.483Z,3.50
2022-10-16T13:52:01.385Z,3.75
2022-10-16T13:54:32.592Z,3.60
2022-10-16T13:57:22.553Z,3.65
2022-10-16T13:59:54.837Z,3.55
2022-10-16T14:02:29.105Z,3.33
2022-10-16T14:04:58.999Z,3.47
2022-10-16T14:07:32.831Z,3.50
2022-10-16T14:10:24.557Z,3.50
2022-10-16T14:13:04.413Z,3.38
2022-10-16T14:15:34.070Z,3.55
2022-10-16T14:18:01.603Z,3.50
2022-10-16T14:20:34.469Z,3.92
2022-10-16T14:23:20.301Z,3.58
2022-10-16T14:25:48.291Z,3.20
2022-10-16T14:28:24.300Z,3.75
2022-10-16T14:31:01.351Z,4.20
2022-10-16T14:33:31.532Z,3.80
2022-10-16T14:36:12.660Z,3.80
2022-10-16T14:38:42.811Z,3.70
2022-10-16T14:41:10.958Z,4.10
2022-10-16T14:43:41.207Z,3.75
2022-10-16T14:46:16.043Z,3.80
2022-10-16T14:48:52.231Z,3.95
2022-10-16T14:51:21.024Z,4.25
2022-10-16T14:53:48.993Z,3.90
2022-10-16T14:56:22.326Z,4.00
2022-10-16T14:58:51.941Z,3.85
2022-10-16T15:01:22.013Z,4.10
2022-10-16T15:03:50.007Z,4.20
2022-10-16T15:06:17.829Z,4.00
2022-10-16T15:08:45.515Z,4.55
2022-10-16T15:11:18.271Z,3.90
2022-10-16T15:13:45.804Z,3.80
2022-10-16T15:16:16.145Z,4.30
2022-10-16T15:18:44.132Z,4.47
2022-10-16T15:21:26.093Z,4.47
2022-10-16T15:23:53.547Z,4.63
2022-10-16T15:26:20.942Z,4.13
2022-10-16T15:28:48.395Z,4.90
2022-10-16T15:31:15.881Z,4.95
2022-10-16T15:33:43.279Z,4.88
2022-10-16T15:36:10.804Z,5.22
2022-10-16T15:38:38.211Z,5.50
2022-10-16T15:41:05.835Z,6.80
2022-10-16T15:43:33.107Z,6.43
2022-10-16T15:46:02.760Z,6.60
2022-10-16T15:48:31.131Z,6.68
2022-10-16T15:50:58.563Z,6.75
2022-10-16T15:53:25.954Z,6.60
2022-10-16T15:55:53.309Z,6.70
2022-10-16T15:58:20.757Z,7.10
2022-10-16T16:00:57.997Z,7.38
2022-10-16T16:03:25.733Z,7.25
2022-10-16T16:05:53.266Z,7.95
2022-10-16T16:08:20.692Z,7.47
2022-10-16T16:11:02.125Z,8.13
2022-10-16T16:13:29.775Z,8.48
2022-10-16T16:15:57.296Z,8.38
2022-10-16T16:18:25.092Z,8.27
2022-10-16T16:20:53.089Z,9.07
2022-10-16T16:23:21.200Z,9.63
2022-10-16T16:26:07.453Z,8.65
2022-10-16T16:28:35.537Z,10.10
2022-10-16T16:31:03.348Z,10.52
2022-10-16T16:33:31.989Z,9.75
2022-10-16T16:36:00.903Z,10.13
2022-10-16T16:38:29.478Z,10.93
2022-10-16T16:40:57.126Z,11.02
2022-10-16T16:43:26.261Z,10.15
2022-10-16T16:45:55.562Z,11.20
2022-10-16T16:48:23.431Z,10.63
2022-10-16T16:50:50.689Z,11.35
2022-10-16T16:53:18.377Z,11.20
2022-10-16T16:55:47.097Z,11.40
2022-10-16T16:58:14.499Z,12.63
2022-10-16T17:00:56.625Z,12.57
2022-10-16T17:03:30.986Z,14.48
2022-10-16T17:06:03.123Z,13.80
2022-10-16T17:08:31.238Z,15.35
2022-10-16T17:10:58.987Z,14.38
2022-10-16T17:13:28.332Z,16.08
2022-10-16T17:15:56.132Z,19.70
2022-10-16T17:18:25.152Z,19.35
2022-10-16T17:20:52.715Z,16.70
2022-10-16T17:23:21.160Z,16.10
2022-10-16T17:25:48.561Z,16.17
2022-10-16T17:28:15.854Z,16.58
2022-10-16T17:30:44.327Z,16.60
2022-10-16T17:33:13.401Z,16.10
2022-10-16T17:35:43.645Z,18.58
2022-10-16T17:38:12.821Z,17.70
2022-10-16T17:40:40.735Z,15.07
2022-10-16T17:43:08.565Z,16.17
2022-10-16T17:45:39.525Z,16.20
2022-10-16T17:48:07.309Z,16.35
2022-10-16T17:50:37.461Z,17.17
2022-10-16T17:53:04.792Z,18.08
2022-10-16T17:55:32.148Z,15.63
2022-10-16T17:57:59.477Z,14.43
2022-10-16T18:00:26.921Z,17.10
2022-10-16T18:02:54.219Z,17.42
2022-10-16T18:05:21.538Z,17.00
2022-10-16T18:07:48.895Z,17.30
2022-10-16T18:10:18.841Z,15.90
2022-10-16T18:12:58.173Z,16.13
2022-10-16T18:15:25.511Z,16.08
2022-10-16T18:17:52.881Z,14.85
2022-10-16T18:20:20.963Z,15.75
2022-10-16T18:22:48.411Z,16.08
2022-10-16T18:25:15.681Z,15.05
2022-10-16T18:27:43.021Z,13.35
2022-10-16T18:30:10.673Z,12.95
2022-10-16T18:32:38.060Z,12.98
2022-10-16T18:35:05.990Z,12.40
2022-10-16T18:37:36.802Z,13.00
2022-10-16T18:40:05.158Z,13.20
2022-10-16T18:42:32.500Z,12.38
2022-10-16T18:45:00.768Z,12.18
2022-10-16T18:47:29.902Z,12.30
2022-10-16T18:49:57.431Z,11.68
2022-10-16T18:52:27.083Z,11.82
2022-10-16T18:54:57.671Z,11.77
2022-10-16T18:57:28.317Z,11.63
2022-10-16T18:59:56.879Z,11.15
2022-10-16T19:02:24.617Z,12.13
2022-10-16T19:04:52.148Z,11.70
2022-10-16T19:07:19.473Z,9.38
2022-10-16T19:09:46.856Z,10.25
2022-10-16T19:12:14.112Z,10.23
2022-10-16T19:14:41.546Z,10.27
2022-10-16T19:17:09.062Z,10.98
2022-10-16T19:19:38.522Z,9.93
2022-10-16T19:22:14.192Z,11.13
2022-10-16T19:24:42.180Z,10.80
2022-10-16T19:27:09.594Z,10.63
2022-10-16T19:29:37.060Z,11.32
2022-10-16T19:32:07.254Z,10.82
2022-10-16T19:34:35.036Z,11.98
2022-10-16T19:37:02.379Z,11.13
2022-10-16T19:39:29.864Z,11.20
2022-10-16T19:41:57.290Z,11.90
2022-10-16T19:44:24.722Z,11.05
2022-10-16T19:46:52.068Z,11.25
2022-10-16T19:49:21.969Z,10.55
2022-10-16T19:51:52.084Z,10.60
2022-10-16T19:54:20.239Z,10.95
2022-10-16T19:56:47.748Z,12.10
2022-10-16T19:59:19.283Z,10.50
2022-10-16T20:01:47.435Z,10.73
2022-10-16T20:04:15.442Z,10.35
2022-10-16T20:06:43.010Z,10.80
2022-10-16T20:09:10.602Z,10.32
2022-10-16T20:11:38.632Z,10.73
2022-10-16T20:14:06.058Z,10.95
2022-10-16T20:16:33.643Z,10.15
2022-10-16T20:19:01.635Z,11.70
2022-10-16T20:21:31.993Z,11.32
2022-10-16T20:24:01.502Z,12.02
2022-10-16T20:26:29.060Z,11.30
2022-10-16T20:28:56.668Z,11.57
2022-10-16T20:31:27.434Z,12.05
2022-10-16T20:33:56.830Z,10.13
2022-10-16T20:36:26.517Z,9.60
2022-10-16T20:38:54.581Z,10.45
2022-10-16T20:41:22.092Z,9.70
2022-10-16T20:43:52.635Z,9.85
2022-10-16T20:46:25.272Z,9.02
2022-10-16T20:48:54.395Z,9.75
2022-10-16T20:51:25.127Z,9.98
2022-10-16T20:53:58.073Z,9.27
2022-10-16T20:56:26.815Z,9.27
2022-10-16T20:58:54.459Z,8.75
2022-10-16T21:01:24.476Z,9.38
2022-10-16T21:03:55.044Z,9.90
2022-10-16T21:06:23.684Z,9.63
2022-10-16T21:08:51.728Z,10.30
2022-10-16T21:11:25.119Z,10.38
2022-10-16T21:13:54.541Z,11.00
2022-10-16T21:16:22.805Z,11.32
2022-10-16T21:18:50.432Z,12.15
2022-10-16T21:21:27.318Z,11.82
2022-10-16T21:23:55.152Z,11.05
2022-10-16T21:26:26.568Z,9.85
2022-10-16T21:28:56.833Z,9.32
2022-10-16T21:31:24.507Z,8.70
2022-10-16T21:33:53.143Z,8.05
2022-10-16T21:36:22.741Z,8.02
2022-10-16T21:38:50.380Z,7.43
2022-10-16T21:41:17.573Z,7.63
2022-10-16T21:43:45.296Z,7.22
2022-10-16T21:46:13.446Z,7.80
2022-10-16T21:48:43.024Z,7.70
2022-10-16T21:51:12.530Z,7.55
2022-10-16T21:53:40.705Z,7.50
2022-10-16T21:56:18.606Z,7.95
2022-10-16T21:58:46.136Z,6.97
2022-10-16T22:01:17.947Z,7.30
2022-10-16T22:03:46.734Z,6.55
2022-10-16T22:06:16.184Z,7.22
2022-10-16T22:08:45.411Z,7.28
2022-10-16T22:11:22.067Z,7.53
2022-10-16T22:13:54.084Z,7.45
2022-10-16T22:16:26.844Z,7.10
2022-10-16T22:18:56.051Z,7.22
2022-10-16T22:21:24.581Z,7.97
2022-10-16T22:23:51.959Z,7.60
2022-10-16T22:26:19.354Z,7.30
2022-10-16T22:28:46.783Z,6.68
2022-10-16T22:31:15.241Z,6.75
2022-10-16T22:33:43.001Z,6.28
2022-10-16T22:36:15.534Z,6.70
2022-10-16T22:38:42.878Z,6.40
2022-10-16T22:41:13.318Z,6.18
2022-10-16T22:43:44.143Z,6.65
2022-10-16T22:46:20.287Z,6.20
2022-10-16T22:48:47.731Z,5.80
2022-10-16T22:51:17.081Z,5.80
2022-10-16T22:53:46.347Z,5.85
2022-10-16T22:56:15.252Z,5.60
2022-10-16T22:58:42.780Z,5.80
2022-10-16T23:01:13.394Z,6.10
2022-10-16T23:03:43.614Z,5.72
2022-10-16T23:06:11.890Z,5.40
2022-10-16T23:08:39.433Z,5.38
2022-10-16T23:11:12.701Z,5.18
2022-10-16T23:13:45.589Z,4.93
2022-10-16T23:16:15.652Z,5.45
2022-10-16T23:18:43.874Z,4.93
2022-10-16T23:21:14.293Z,5.28
2022-10-16T23:23:42.679Z,4.95
2022-10-16T23:26:16.830Z,4.63
2022-10-16T23:28:44.923Z,4.70
2022-10-16T23:31:13.942Z,4.70
2022-10-16T23:33:41.683Z,4.40
2022-10-16T23:36:12.438Z,4.75
2022-10-16T23:38:40.161Z,4.68
2022-10-16T23:41:07.919Z,4.32
2022-10-16T23:43:36.041Z,4.05
2022-10-16T23:46:03.964Z,4.15
2022-10-16T23:48:31.430Z,4.40
2022-10-16T23:50:58.764Z,4.25
2022-10-16T23:53:26.435Z,4.22
2022-10-16T23:55:53.771Z,4.20
2022-10-16T23:58:21.407Z,4.38
